This is the latest recevied weather packets stored in our database for station/object WX6HNX-5. If no packets are shown the sender has not sent any weather packets the latest 10 day(s).
| Time | Temp. | Humidity | Pressure | Rain* | Wind** | Luminosity | Snow |
|---|---|---|---|---|---|---|---|
| 1777350290 | 13.89° C | 65% | 1016.3 hPa | 0 mm | - | - | - |
| 1777349990 | 13.89° C | 65% | 1016.3 hPa | 0 mm | - | - | - |
| 1777349690 | 14.44° C | 64% | 1016.1 hPa | 0 mm | - | - | - |
| 1777349390 | 14.44° C | 63% | 1016.1 hPa | 0 mm | - | - | - |
| 1777349091 | 15° C | 61% | 1016 hPa | 0 mm | - | - | - |
| 1777348790 | 15° C | 60% | 1015.9 hPa | 0 mm | - | - | - |
| 1777348325 | 15.56° C | 59% | 1015.8 hPa | 0 mm | - | - | - |
| 1777348025 | 15.56° C | 59% | 1015.8 hPa | 0 mm | - | - | - |
| 1777347725 | 16.11° C | 59% | 1015.7 hPa | 0 mm | - | - | - |
| 1777347426 | 16.11° C | 58% | 1015.6 hPa | 0 mm | - | - | - |
| 1777347126 | 16.11° C | 57% | 1015.5 hPa | 0 mm | - | - | - |
| 1777346826 | 16.67° C | 56% | 1015.3 hPa | 0 mm | - | - | - |
| 1777346526 | 16.67° C | 57% | 1015.4 hPa | 0 mm | - | - | - |
| 1777346225 | 16.67° C | 57% | 1015.3 hPa | 0 mm | - | - | - |
| 1777345925 | 16.67° C | 57% | 1015.2 hPa | 0 mm | - | - | - |
| 1777345625 | 16.67° C | 57% | 1015.2 hPa | 0 mm | - | - | - |
| 1777345325 | 16.67° C | 56% | 1015.1 hPa | 0 mm | - | - | - |
| 1777345025 | 16.67° C | 56% | 1015.1 hPa | 0 mm | - | - | - |
| 1777344725 | 16.67° C | 55% | 1015 hPa | 0 mm | - | - | - |
| 1777344425 | 17.22° C | 55% | 1014.9 hPa | 0 mm | - | - | - |
| 1777344125 | 17.22° C | 54% | 1014.9 hPa | 0 mm | - | - | - |
| 1777343610 | 18.33° C | 51% | 1014.7 hPa | 0 mm | - | - | - |
| 1777343310 | 18.33° C | 50% | 1014.7 hPa | 0 mm | - | - | - |
| 1777343010 | 18.33° C | 48% | 1014.7 hPa | 0 mm | - | - | - |
| 1777342710 | 18.89° C | 47% | 1014.6 hPa | 0 mm | - | - | - |
* Rain latest hour (hover to see other rain measurements)
** Current wind speed in m/s (hover to see current wind gust speed)